sensor_id;sensor_type;location;lat;lon;timestamp;P1;durP1;ratioP1;P2;durP2;ratioP2
16512;SDS011;8369;48.030;11.598;2023-05-29T00:01:14;7.67;;;4.13;;
16512;SDS011;8369;48.030;11.598;2023-05-29T00:03:44;6.07;;;3.70;;
16512;SDS011;8369;48.030;11.598;2023-05-29T00:06:10;5.50;;;3.80;;
16512;SDS011;8369;48.030;11.598;2023-05-29T00:08:36;5.50;;;3.87;;
16512;SDS011;8369;48.030;11.598;2023-05-29T00:11:02;4.97;;;3.43;;
16512;SDS011;8369;48.030;11.598;2023-05-29T00:13:27;7.17;;;3.60;;
16512;SDS011;8369;48.030;11.598;2023-05-29T00:15:53;5.87;;;3.63;;
16512;SDS011;8369;48.030;11.598;2023-05-29T00:18:19;4.80;;;3.77;;
16512;SDS011;8369;48.030;11.598;2023-05-29T00:20:46;5.50;;;4.17;;
16512;SDS011;8369;48.030;11.598;2023-05-29T00:23:12;5.40;;;3.87;;
16512;SDS011;8369;48.030;11.598;2023-05-29T00:25:37;6.17;;;3.93;;
16512;SDS011;8369;48.030;11.598;2023-05-29T00:28:06;9.27;;;3.83;;
16512;SDS011;8369;48.030;11.598;2023-05-29T00:30:32;5.73;;;3.77;;
16512;SDS011;8369;48.030;11.598;2023-05-29T00:32:58;4.63;;;3.40;;
16512;SDS011;8369;48.030;11.598;2023-05-29T00:35:24;5.23;;;3.77;;
16512;SDS011;8369;48.030;11.598;2023-05-29T00:37:50;6.07;;;3.80;;
16512;SDS011;8369;48.030;11.598;2023-05-29T00:40:17;4.63;;;3.37;;
16512;SDS011;8369;48.030;11.598;2023-05-29T00:42:42;6.77;;;3.83;;
16512;SDS011;8369;48.030;11.598;2023-05-29T00:45:08;6.60;;;4.10;;
16512;SDS011;8369;48.030;11.598;2023-05-29T00:47:35;5.07;;;3.60;;
16512;SDS011;8369;48.030;11.598;2023-05-29T00:50:02;5.47;;;3.47;;
16512;SDS011;8369;48.030;11.598;2023-05-29T00:52:28;4.60;;;3.33;;
16512;SDS011;8369;48.030;11.598;2023-05-29T00:54:55;5.73;;;3.30;;
16512;SDS011;8369;48.030;11.598;2023-05-29T00:57:22;5.83;;;3.77;;
16512;SDS011;8369;48.030;11.598;2023-05-29T00:59:49;6.00;;;3.90;;
16512;SDS011;8369;48.030;11.598;2023-05-29T01:02:16;4.90;;;3.50;;
16512;SDS011;8369;48.030;11.598;2023-05-29T01:04:44;8.07;;;3.60;;
16512;SDS011;8369;48.030;11.598;2023-05-29T01:07:10;4.87;;;3.60;;
16512;SDS011;8369;48.030;11.598;2023-05-29T01:09:37;4.87;;;3.70;;
16512;SDS011;8369;48.030;11.598;2023-05-29T01:20:33;4.97;;;3.80;;
16512;SDS011;8369;48.030;11.598;2023-05-29T01:29:00;10.23;;;4.07;;
16512;SDS011;8369;48.030;11.598;2023-05-29T01:31:28;5.90;;;3.80;;
16512;SDS011;8369;48.030;11.598;2023-05-29T01:33:58;5.40;;;3.60;;
16512;SDS011;8369;48.030;11.598;2023-05-29T01:36:25;5.53;;;4.07;;
16512;SDS011;8369;48.030;11.598;2023-05-29T01:38:53;6.70;;;3.73;;
16512;SDS011;8369;48.030;11.598;2023-05-29T01:41:21;4.80;;;3.27;;
16512;SDS011;8369;48.030;11.598;2023-05-29T01:43:49;5.53;;;3.60;;
16512;SDS011;8369;48.030;11.598;2023-05-29T01:46:16;6.37;;;3.63;;
16512;SDS011;8369;48.030;11.598;2023-05-29T01:48:44;6.37;;;3.47;;
16512;SDS011;8369;48.030;11.598;2023-05-29T01:51:11;5.67;;;3.80;;
16512;SDS011;8369;48.030;11.598;2023-05-29T01:53:38;5.80;;;3.63;;
16512;SDS011;8369;48.030;11.598;2023-05-29T01:56:05;4.27;;;3.43;;
16512;SDS011;8369;48.030;11.598;2023-05-29T01:58:33;5.53;;;3.67;;
16512;SDS011;8369;48.030;11.598;2023-05-29T02:01:01;6.73;;;3.93;;
16512;SDS011;8369;48.030;11.598;2023-05-29T02:03:29;5.17;;;3.67;;
16512;SDS011;8369;48.030;11.598;2023-05-29T02:05:56;5.13;;;3.23;;
16512;SDS011;8369;48.030;11.598;2023-05-29T02:08:24;6.27;;;3.57;;
16512;SDS011;8369;48.030;11.598;2023-05-29T02:10:50;4.30;;;3.40;;
16512;SDS011;8369;48.030;11.598;2023-05-29T02:13:16;5.60;;;3.57;;
16512;SDS011;8369;48.030;11.598;2023-05-29T02:15:42;5.77;;;3.67;;
16512;SDS011;8369;48.030;11.598;2023-05-29T02:18:13;10.13;;;3.67;;
16512;SDS011;8369;48.030;11.598;2023-05-29T02:20:40;5.97;;;3.60;;
16512;SDS011;8369;48.030;11.598;2023-05-29T02:23:10;7.10;;;3.40;;
16512;SDS011;8369;48.030;11.598;2023-05-29T02:25:36;4.73;;;3.13;;
16512;SDS011;8369;48.030;11.598;2023-05-29T02:28:02;6.03;;;3.23;;
16512;SDS011;8369;48.030;11.598;2023-05-29T02:30:30;5.00;;;3.43;;
16512;SDS011;8369;48.030;11.598;2023-05-29T02:32:56;7.13;;;3.60;;
16512;SDS011;8369;48.030;11.598;2023-05-29T02:35:22;6.07;;;3.40;;
16512;SDS011;8369;48.030;11.598;2023-05-29T02:37:49;5.77;;;3.80;;
16512;SDS011;8369;48.030;11.598;2023-05-29T02:40:16;6.37;;;3.60;;
16512;SDS011;8369;48.030;11.598;2023-05-29T02:42:42;6.20;;;3.73;;
16512;SDS011;8369;48.030;11.598;2023-05-29T02:45:09;5.37;;;3.47;;
16512;SDS011;8369;48.030;11.598;2023-05-29T02:47:35;4.33;;;3.40;;
16512;SDS011;8369;48.030;11.598;2023-05-29T02:50:02;5.63;;;3.57;;
16512;SDS011;8369;48.030;11.598;2023-05-29T02:52:28;5.77;;;3.47;;
16512;SDS011;8369;48.030;11.598;2023-05-29T02:54:55;4.77;;;3.57;;
16512;SDS011;8369;48.030;11.598;2023-05-29T02:57:22;3.87;;;3.23;;
16512;SDS011;8369;48.030;11.598;2023-05-29T02:59:48;5.93;;;3.60;;
16512;SDS011;8369;48.030;11.598;2023-05-29T03:02:14;4.97;;;3.50;;
16512;SDS011;8369;48.030;11.598;2023-05-29T03:04:40;4.23;;;3.30;;
16512;SDS011;8369;48.030;11.598;2023-05-29T03:07:07;4.43;;;3.43;;
16512;SDS011;8369;48.030;11.598;2023-05-29T03:09:34;6.57;;;3.50;;
16512;SDS011;8369;48.030;11.598;2023-05-29T03:12:01;5.07;;;3.20;;
16512;SDS011;8369;48.030;11.598;2023-05-29T03:14:27;5.13;;;3.23;;
16512;SDS011;8369;48.030;11.598;2023-05-29T03:16:53;5.97;;;3.07;;
16512;SDS011;8369;48.030;11.598;2023-05-29T03:19:20;4.83;;;3.43;;
16512;SDS011;8369;48.030;11.598;2023-05-29T03:21:46;7.57;;;3.67;;
16512;SDS011;8369;48.030;11.598;2023-05-29T03:24:12;6.10;;;2.90;;
16512;SDS011;8369;48.030;11.598;2023-05-29T03:26:38;6.13;;;3.83;;
16512;SDS011;8369;48.030;11.598;2023-05-29T03:29:05;5.67;;;3.60;;
16512;SDS011;8369;48.030;11.598;2023-05-29T03:31:31;6.80;;;3.40;;
16512;SDS011;8369;48.030;11.598;2023-05-29T03:33:57;5.83;;;3.50;;
16512;SDS011;8369;48.030;11.598;2023-05-29T03:36:24;4.90;;;3.27;;
16512;SDS011;8369;48.030;11.598;2023-05-29T03:38:50;5.20;;;3.40;;
16512;SDS011;8369;48.030;11.598;2023-05-29T03:41:16;4.87;;;3.30;;
16512;SDS011;8369;48.030;11.598;2023-05-29T03:43:42;4.63;;;3.40;;
16512;SDS011;8369;48.030;11.598;2023-05-29T03:46:08;4.43;;;3.30;;
16512;SDS011;8369;48.030;11.598;2023-05-29T03:48:34;6.07;;;3.40;;
16512;SDS011;8369;48.030;11.598;2023-05-29T03:51:00;6.40;;;3.47;;
16512;SDS011;8369;48.030;11.598;2023-05-29T03:53:26;5.40;;;3.67;;
16512;SDS011;8369;48.030;11.598;2023-05-29T03:55:52;7.17;;;3.80;;
16512;SDS011;8369;48.030;11.598;2023-05-29T03:58:20;7.03;;;4.03;;
16512;SDS011;8369;48.030;11.598;2023-05-29T04:00:46;6.20;;;3.60;;
16512;SDS011;8369;48.030;11.598;2023-05-29T04:03:12;4.10;;;3.20;;
16512;SDS011;8369;48.030;11.598;2023-05-29T04:05:39;5.73;;;3.57;;
16512;SDS011;8369;48.030;11.598;2023-05-29T04:08:04;5.37;;;3.40;;
16512;SDS011;8369;48.030;11.598;2023-05-29T04:10:30;6.07;;;3.80;;
16512;SDS011;8369;48.030;11.598;2023-05-29T04:13:00;5.20;;;3.47;;
16512;SDS011;8369;48.030;11.598;2023-05-29T04:15:29;4.87;;;3.40;;
16512;SDS011;8369;48.030;11.598;2023-05-29T04:17:55;5.47;;;3.23;;
16512;SDS011;8369;48.030;11.598;2023-05-29T04:20:21;4.87;;;3.57;;
16512;SDS011;8369;48.030;11.598;2023-05-29T04:22:47;4.93;;;3.20;;
16512;SDS011;8369;48.030;11.598;2023-05-29T04:25:13;4.50;;;3.63;;
16512;SDS011;8369;48.030;11.598;2023-05-29T04:27:40;4.40;;;3.60;;
16512;SDS011;8369;48.030;11.598;2023-05-29T04:30:07;5.60;;;3.40;;
16512;SDS011;8369;48.030;11.598;2023-05-29T04:32:33;5.23;;;3.30;;
16512;SDS011;8369;48.030;11.598;2023-05-29T04:35:00;8.03;;;3.20;;
16512;SDS011;8369;48.030;11.598;2023-05-29T04:37:30;3.83;;;3.30;;
16512;SDS011;8369;48.030;11.598;2023-05-29T04:40:03;7.50;;;3.87;;
16512;SDS011;8369;48.030;11.598;2023-05-29T04:42:34;5.13;;;3.23;;
16512;SDS011;8369;48.030;11.598;2023-05-29T04:45:01;5.23;;;3.50;;
16512;SDS011;8369;48.030;11.598;2023-05-29T04:47:30;5.30;;;3.47;;
16512;SDS011;8369;48.030;11.598;2023-05-29T04:49:58;4.57;;;3.20;;
16512;SDS011;8369;48.030;11.598;2023-05-29T04:52:25;5.90;;;3.50;;
16512;SDS011;8369;48.030;11.598;2023-05-29T04:54:52;4.33;;;2.97;;
16512;SDS011;8369;48.030;11.598;2023-05-29T04:57:19;6.23;;;3.23;;
16512;SDS011;8369;48.030;11.598;2023-05-29T04:59:45;5.30;;;3.10;;
16512;SDS011;8369;48.030;11.598;2023-05-29T05:02:11;6.13;;;3.20;;
16512;SDS011;8369;48.030;11.598;2023-05-29T05:04:36;5.93;;;3.60;;
16512;SDS011;8369;48.030;11.598;2023-05-29T05:07:04;4.70;;;3.13;;
16512;SDS011;8369;48.030;11.598;2023-05-29T05:09:31;3.43;;;3.00;;
16512;SDS011;8369;48.030;11.598;2023-05-29T05:11:57;5.13;;;3.10;;
16512;SDS011;8369;48.030;11.598;2023-05-29T05:14:23;5.03;;;3.30;;
16512;SDS011;8369;48.030;11.598;2023-05-29T05:16:49;5.63;;;3.63;;
16512;SDS011;8369;48.030;11.598;2023-05-29T05:19:16;7.53;;;3.50;;
16512;SDS011;8369;48.030;11.598;2023-05-29T05:21:42;4.53;;;3.50;;
16512;SDS011;8369;48.030;11.598;2023-05-29T05:24:08;7.10;;;3.67;;
16512;SDS011;8369;48.030;11.598;2023-05-29T05:26:33;4.20;;;3.60;;
16512;SDS011;8369;48.030;11.598;2023-05-29T05:29:00;6.30;;;3.47;;
16512;SDS011;8369;48.030;11.598;2023-05-29T05:31:26;4.47;;;3.50;;
16512;SDS011;8369;48.030;11.598;2023-05-29T05:33:52;4.30;;;3.50;;
16512;SDS011;8369;48.030;11.598;2023-05-29T05:36:18;6.67;;;4.20;;
16512;SDS011;8369;48.030;11.598;2023-05-29T05:38:44;6.10;;;4.30;;
16512;SDS011;8369;48.030;11.598;2023-05-29T05:41:11;4.87;;;4.00;;
16512;SDS011;8369;48.030;11.598;2023-05-29T05:43:36;6.53;;;4.30;;
16512;SDS011;8369;48.030;11.598;2023-05-29T05:46:02;7.47;;;4.63;;
16512;SDS011;8369;48.030;11.598;2023-05-29T05:48:29;6.07;;;4.10;;
16512;SDS011;8369;48.030;11.598;2023-05-29T05:50:56;7.27;;;4.30;;
16512;SDS011;8369;48.030;11.598;2023-05-29T05:53:21;7.47;;;4.83;;
16512;SDS011;8369;48.030;11.598;2023-05-29T05:55:47;6.80;;;4.63;;
16512;SDS011;8369;48.030;11.598;2023-05-29T05:58:13;11.43;;;4.80;;
16512;SDS011;8369;48.030;11.598;2023-05-29T06:00:40;9.33;;;4.97;;
16512;SDS011;8369;48.030;11.598;2023-05-29T06:03:07;6.87;;;4.70;;
16512;SDS011;8369;48.030;11.598;2023-05-29T06:05:33;6.27;;;4.40;;
16512;SDS011;8369;48.030;11.598;2023-05-29T06:08:01;6.70;;;4.63;;
16512;SDS011;8369;48.030;11.598;2023-05-29T06:10:27;10.20;;;4.87;;
16512;SDS011;8369;48.030;11.598;2023-05-29T06:12:53;8.20;;;4.50;;
16512;SDS011;8369;48.030;11.598;2023-05-29T06:15:19;8.90;;;4.60;;
16512;SDS011;8369;48.030;11.598;2023-05-29T06:17:45;6.70;;;4.50;;
16512;SDS011;8369;48.030;11.598;2023-05-29T06:20:11;7.90;;;4.53;;
16512;SDS011;8369;48.030;11.598;2023-05-29T06:22:39;8.90;;;4.90;;
16512;SDS011;8369;48.030;11.598;2023-05-29T06:25:05;9.40;;;5.40;;
16512;SDS011;8369;48.030;11.598;2023-05-29T06:27:32;8.40;;;5.17;;
16512;SDS011;8369;48.030;11.598;2023-05-29T06:29:58;7.60;;;4.90;;
16512;SDS011;8369;48.030;11.598;2023-05-29T06:32:24;10.10;;;5.13;;
16512;SDS011;8369;48.030;11.598;2023-05-29T06:34:50;8.13;;;5.60;;
16512;SDS011;8369;48.030;11.598;2023-05-29T06:37:19;8.60;;;5.47;;
16512;SDS011;8369;48.030;11.598;2023-05-29T06:39:45;7.23;;;4.63;;
16512;SDS011;8369;48.030;11.598;2023-05-29T06:42:11;7.43;;;4.60;;
16512;SDS011;8369;48.030;11.598;2023-05-29T06:44:37;7.83;;;5.17;;
16512;SDS011;8369;48.030;11.598;2023-05-29T06:47:05;6.78;;;4.63;;
16512;SDS011;8369;48.030;11.598;2023-05-29T06:49:31;7.25;;;4.97;;
16512;SDS011;8369;48.030;11.598;2023-05-29T06:51:58;10.02;;;5.07;;
16512;SDS011;8369;48.030;11.598;2023-05-29T06:54:25;6.93;;;4.78;;
16512;SDS011;8369;48.030;11.598;2023-05-29T06:56:51;6.90;;;4.72;;
16512;SDS011;8369;48.030;11.598;2023-05-29T06:59:19;7.18;;;4.43;;
16512;SDS011;8369;48.030;11.598;2023-05-29T07:01:45;6.28;;;4.53;;
16512;SDS011;8369;48.030;11.598;2023-05-29T07:04:12;6.30;;;4.20;;
16512;SDS011;8369;48.030;11.598;2023-05-29T07:06:38;7.45;;;4.78;;
16512;SDS011;8369;48.030;11.598;2023-05-29T07:09:04;8.52;;;5.00;;
16512;SDS011;8369;48.030;11.598;2023-05-29T07:11:30;6.28;;;4.50;;
16512;SDS011;8369;48.030;11.598;2023-05-29T07:13:56;6.82;;;4.22;;
16512;SDS011;8369;48.030;11.598;2023-05-29T07:16:22;8.18;;;4.20;;
16512;SDS011;8369;48.030;11.598;2023-05-29T07:18:48;8.60;;;4.65;;
16512;SDS011;8369;48.030;11.598;2023-05-29T07:21:16;5.30;;;4.15;;
16512;SDS011;8369;48.030;11.598;2023-05-29T07:23:43;6.47;;;4.50;;
16512;SDS011;8369;48.030;11.598;2023-05-29T07:26:09;8.95;;;4.50;;
16512;SDS011;8369;48.030;11.598;2023-05-29T07:28:35;10.57;;;4.50;;
16512;SDS011;8369;48.030;11.598;2023-05-29T07:31:01;8.73;;;4.82;;
16512;SDS011;8369;48.030;11.598;2023-05-29T07:33:27;6.35;;;4.00;;
16512;SDS011;8369;48.030;11.598;2023-05-29T07:35:53;7.50;;;4.10;;
16512;SDS011;8369;48.030;11.598;2023-05-29T07:38:18;6.72;;;4.35;;
16512;SDS011;8369;48.030;11.598;2023-05-29T07:40:45;7.15;;;4.35;;
16512;SDS011;8369;48.030;11.598;2023-05-29T07:43:10;11.70;;;4.80;;
16512;SDS011;8369;48.030;11.598;2023-05-29T07:45:37;6.20;;;4.03;;
16512;SDS011;8369;48.030;11.598;2023-05-29T07:48:03;5.93;;;4.18;;
16512;SDS011;8369;48.030;11.598;2023-05-29T07:50:29;7.90;;;4.68;;
16512;SDS011;8369;48.030;11.598;2023-05-29T07:52:55;7.50;;;4.43;;
16512;SDS011;8369;48.030;11.598;2023-05-29T07:55:27;6.55;;;4.25;;
16512;SDS011;8369;48.030;11.598;2023-05-29T07:57:53;8.55;;;4.40;;
16512;SDS011;8369;48.030;11.598;2023-05-29T08:00:20;5.43;;;4.05;;
16512;SDS011;8369;48.030;11.598;2023-05-29T08:02:46;6.40;;;4.18;;
16512;SDS011;8369;48.030;11.598;2023-05-29T08:05:12;8.27;;;4.65;;
16512;SDS011;8369;48.030;11.598;2023-05-29T08:07:38;7.70;;;4.40;;
16512;SDS011;8369;48.030;11.598;2023-05-29T08:10:05;6.25;;;4.05;;
16512;SDS011;8369;48.030;11.598;2023-05-29T08:12:31;5.80;;;3.97;;
16512;SDS011;8369;48.030;11.598;2023-05-29T08:14:59;8.00;;;4.82;;
16512;SDS011;8369;48.030;11.598;2023-05-29T08:17:26;7.75;;;4.68;;
16512;SDS011;8369;48.030;11.598;2023-05-29T08:19:53;7.25;;;5.00;;
16512;SDS011;8369;48.030;11.598;2023-05-29T08:22:19;5.97;;;4.35;;
16512;SDS011;8369;48.030;11.598;2023-05-29T08:24:46;5.97;;;4.70;;
16512;SDS011;8369;48.030;11.598;2023-05-29T08:27:12;6.43;;;4.22;;
16512;SDS011;8369;48.030;11.598;2023-05-29T08:29:39;6.50;;;4.40;;
16512;SDS011;8369;48.030;11.598;2023-05-29T08:32:06;8.10;;;4.75;;
16512;SDS011;8369;48.030;11.598;2023-05-29T08:34:32;5.45;;;4.20;;
16512;SDS011;8369;48.030;11.598;2023-05-29T08:36:58;7.35;;;4.65;;
16512;SDS011;8369;48.030;11.598;2023-05-29T08:39:25;8.05;;;5.10;;
16512;SDS011;8369;48.030;11.598;2023-05-29T08:44:26;6.53;;;4.40;;
16512;SDS011;8369;48.030;11.598;2023-05-29T08:46:56;8.07;;;4.35;;
16512;SDS011;8369;48.030;11.598;2023-05-29T08:49:25;6.50;;;4.38;;
16512;SDS011;8369;48.030;11.598;2023-05-29T08:52:02;6.63;;;4.72;;
16512;SDS011;8369;48.030;11.598;2023-05-29T08:54:34;7.28;;;4.55;;
16512;SDS011;8369;48.030;11.598;2023-05-29T08:57:00;6.85;;;4.25;;
16512;SDS011;8369;48.030;11.598;2023-05-29T08:59:26;10.35;;;5.28;;
16512;SDS011;8369;48.030;11.598;2023-05-29T09:01:55;7.35;;;4.40;;
16512;SDS011;8369;48.030;11.598;2023-05-29T09:04:22;7.10;;;4.60;;
16512;SDS011;8369;48.030;11.598;2023-05-29T09:06:48;6.85;;;4.75;;
16512;SDS011;8369;48.030;11.598;2023-05-29T09:09:17;7.43;;;5.15;;
16512;SDS011;8369;48.030;11.598;2023-05-29T09:11:43;7.20;;;5.00;;
16512;SDS011;8369;48.030;11.598;2023-05-29T09:17:02;7.47;;;4.80;;
16512;SDS011;8369;48.030;11.598;2023-05-29T09:19:30;6.72;;;4.32;;
16512;SDS011;8369;48.030;11.598;2023-05-29T09:22:04;9.80;;;4.35;;
16512;SDS011;8369;48.030;11.598;2023-05-29T09:24:34;8.68;;;4.68;;
16512;SDS011;8369;48.030;11.598;2023-05-29T09:27:04;6.65;;;4.63;;
16512;SDS011;8369;48.030;11.598;2023-05-29T09:29:31;9.85;;;4.47;;
16512;SDS011;8369;48.030;11.598;2023-05-29T09:31:58;6.03;;;4.25;;
16512;SDS011;8369;48.030;11.598;2023-05-29T09:34:24;6.18;;;4.32;;
16512;SDS011;8369;48.030;11.598;2023-05-29T09:36:53;7.07;;;4.65;;
16512;SDS011;8369;48.030;11.598;2023-05-29T09:39:32;5.63;;;4.35;;
16512;SDS011;8369;48.030;11.598;2023-05-29T09:41:59;6.97;;;4.30;;
16512;SDS011;8369;48.030;11.598;2023-05-29T09:44:26;7.03;;;4.50;;
16512;SDS011;8369;48.030;11.598;2023-05-29T09:46:59;6.32;;;4.53;;
16512;SDS011;8369;48.030;11.598;2023-05-29T09:49:25;7.63;;;4.40;;
16512;SDS011;8369;48.030;11.598;2023-05-29T09:51:53;5.18;;;4.20;;
16512;SDS011;8369;48.030;11.598;2023-05-29T09:54:20;6.57;;;4.40;;
16512;SDS011;8369;48.030;11.598;2023-05-29T09:56:46;6.93;;;4.57;;
16512;SDS011;8369;48.030;11.598;2023-05-29T09:59:14;8.15;;;4.63;;
16512;SDS011;8369;48.030;11.598;2023-05-29T10:01:41;7.32;;;4.10;;
16512;SDS011;8369;48.030;11.598;2023-05-29T10:04:10;8.10;;;4.60;;
16512;SDS011;8369;48.030;11.598;2023-05-29T10:06:36;9.50;;;4.90;;
16512;SDS011;8369;48.030;11.598;2023-05-29T10:09:05;7.53;;;4.60;;
16512;SDS011;8369;48.030;11.598;2023-05-29T10:11:37;7.38;;;4.63;;
16512;SDS011;8369;48.030;11.598;2023-05-29T10:14:06;9.40;;;4.97;;
16512;SDS011;8369;48.030;11.598;2023-05-29T10:16:38;6.60;;;4.70;;
16512;SDS011;8369;48.030;11.598;2023-05-29T10:19:12;7.10;;;4.35;;
16512;SDS011;8369;48.030;11.598;2023-05-29T10:21:41;7.68;;;4.72;;
16512;SDS011;8369;48.030;11.598;2023-05-29T10:24:09;6.28;;;4.45;;
16512;SDS011;8369;48.030;11.598;2023-05-29T10:26:38;6.00;;;4.40;;
16512;SDS011;8369;48.030;11.598;2023-05-29T10:39:43;5.97;;;4.75;;
16512;SDS011;8369;48.030;11.598;2023-05-29T10:45:04;7.38;;;4.13;;
16512;SDS011;8369;48.030;11.598;2023-05-29T10:47:31;5.40;;;3.75;;
16512;SDS011;8369;48.030;11.598;2023-05-29T10:50:00;9.30;;;4.22;;
16512;SDS011;8369;48.030;11.598;2023-05-29T10:52:30;6.07;;;4.20;;
16512;SDS011;8369;48.030;11.598;2023-05-29T10:54:57;8.55;;;4.35;;
16512;SDS011;8369;48.030;11.598;2023-05-29T10:57:24;6.75;;;4.15;;
16512;SDS011;8369;48.030;11.598;2023-05-29T11:00:07;5.25;;;4.40;;
16512;SDS011;8369;48.030;11.598;2023-05-29T11:02:38;7.40;;;4.35;;
16512;SDS011;8369;48.030;11.598;2023-05-29T11:05:18;5.97;;;4.25;;
16512;SDS011;8369;48.030;11.598;2023-05-29T11:07:56;5.55;;;4.10;;
16512;SDS011;8369;48.030;11.598;2023-05-29T11:10:42;5.70;;;4.13;;
16512;SDS011;8369;48.030;11.598;2023-05-29T11:13:51;6.68;;;4.03;;
16512;SDS011;8369;48.030;11.598;2023-05-29T11:18:51;35.90;;;5.60;;
16512;SDS011;8369;48.030;11.598;2023-05-29T11:21:44;5.45;;;3.95;;
16512;SDS011;8369;48.030;11.598;2023-05-29T11:26:49;11.75;;;5.32;;
16512;SDS011;8369;48.030;11.598;2023-05-29T11:29:22;5.95;;;3.90;;
16512;SDS011;8369;48.030;11.598;2023-05-29T11:31:49;7.35;;;4.68;;
16512;SDS011;8369;48.030;11.598;2023-05-29T11:34:30;9.88;;;4.50;;
16512;SDS011;8369;48.030;11.598;2023-05-29T11:37:01;5.95;;;4.05;;
16512;SDS011;8369;48.030;11.598;2023-05-29T11:39:28;8.02;;;4.55;;
16512;SDS011;8369;48.030;11.598;2023-05-29T11:41:54;5.00;;;4.05;;
16512;SDS011;8369;48.030;11.598;2023-05-29T11:44:23;5.35;;;3.75;;
16512;SDS011;8369;48.030;11.598;2023-05-29T11:47:05;6.75;;;4.07;;
16512;SDS011;8369;48.030;11.598;2023-05-29T11:49:40;7.32;;;4.40;;
16512;SDS011;8369;48.030;11.598;2023-05-29T11:54:36;5.63;;;4.25;;
16512;SDS011;8369;48.030;11.598;2023-05-29T11:57:03;5.65;;;4.00;;
16512;SDS011;8369;48.030;11.598;2023-05-29T11:59:32;6.32;;;3.75;;
16512;SDS011;8369;48.030;11.598;2023-05-29T12:02:02;5.22;;;3.97;;
16512;SDS011;8369;48.030;11.598;2023-05-29T12:04:29;5.45;;;3.90;;
16512;SDS011;8369;48.030;11.598;2023-05-29T12:06:55;8.27;;;4.32;;
16512;SDS011;8369;48.030;11.598;2023-05-29T12:09:27;6.80;;;4.40;;
16512;SDS011;8369;48.030;11.598;2023-05-29T12:12:00;5.38;;;3.83;;
16512;SDS011;8369;48.030;11.598;2023-05-29T12:14:27;6.95;;;4.07;;
16512;SDS011;8369;48.030;11.598;2023-05-29T12:16:53;5.70;;;4.05;;
16512;SDS011;8369;48.030;11.598;2023-05-29T12:19:20;6.60;;;3.72;;
16512;SDS011;8369;48.030;11.598;2023-05-29T12:21:47;4.88;;;3.88;;
16512;SDS011;8369;48.030;11.598;2023-05-29T12:24:13;5.60;;;4.13;;
16512;SDS011;8369;48.030;11.598;2023-05-29T12:26:41;6.88;;;4.30;;
16512;SDS011;8369;48.030;11.598;2023-05-29T12:29:07;6.80;;;3.85;;
16512;SDS011;8369;48.030;11.598;2023-05-29T12:31:33;5.78;;;4.18;;
16512;SDS011;8369;48.030;11.598;2023-05-29T12:34:00;6.75;;;4.25;;
16512;SDS011;8369;48.030;11.598;2023-05-29T12:36:27;8.60;;;4.20;;
16512;SDS011;8369;48.030;11.598;2023-05-29T12:38:53;4.60;;;3.70;;
16512;SDS011;8369;48.030;11.598;2023-05-29T12:41:27;8.05;;;3.95;;
16512;SDS011;8369;48.030;11.598;2023-05-29T12:43:54;7.32;;;4.20;;
16512;SDS011;8369;48.030;11.598;2023-05-29T12:46:22;5.93;;;3.75;;
16512;SDS011;8369;48.030;11.598;2023-05-29T12:48:55;7.22;;;4.13;;
16512;SDS011;8369;48.030;11.598;2023-05-29T12:51:28;6.47;;;4.20;;
16512;SDS011;8369;48.030;11.598;2023-05-29T12:53:54;4.13;;;3.40;;
16512;SDS011;8369;48.030;11.598;2023-05-29T12:56:22;6.28;;;3.75;;
16512;SDS011;8369;48.030;11.598;2023-05-29T12:58:51;6.35;;;3.40;;
16512;SDS011;8369;48.030;11.598;2023-05-29T13:01:17;4.22;;;3.22;;
16512;SDS011;8369;48.030;11.598;2023-05-29T13:03:43;7.13;;;4.10;;
16512;SDS011;8369;48.030;11.598;2023-05-29T13:06:10;4.75;;;3.95;;
16512;SDS011;8369;48.030;11.598;2023-05-29T13:08:36;7.90;;;4.10;;
16512;SDS011;8369;48.030;11.598;2023-05-29T13:11:03;5.18;;;3.72;;
16512;SDS011;8369;48.030;11.598;2023-05-29T13:13:29;4.97;;;3.58;;
16512;SDS011;8369;48.030;11.598;2023-05-29T13:15:55;5.93;;;3.55;;
16512;SDS011;8369;48.030;11.598;2023-05-29T13:18:22;6.80;;;3.75;;
16512;SDS011;8369;48.030;11.598;2023-05-29T13:20:48;5.38;;;3.45;;
16512;SDS011;8369;48.030;11.598;2023-05-29T13:23:14;5.15;;;3.92;;
16512;SDS011;8369;48.030;11.598;2023-05-29T13:25:40;7.80;;;4.63;;
16512;SDS011;8369;48.030;11.598;2023-05-29T13:28:07;6.13;;;4.35;;
16512;SDS011;8369;48.030;11.598;2023-05-29T13:30:33;6.68;;;4.10;;
16512;SDS011;8369;48.030;11.598;2023-05-29T13:32:59;4.97;;;3.75;;
16512;SDS011;8369;48.030;11.598;2023-05-29T13:35:25;5.85;;;4.03;;
16512;SDS011;8369;48.030;11.598;2023-05-29T13:37:52;5.97;;;4.22;;
16512;SDS011;8369;48.030;11.598;2023-05-29T13:40:17;5.57;;;3.70;;
16512;SDS011;8369;48.030;11.598;2023-05-29T13:42:43;4.93;;;3.83;;
16512;SDS011;8369;48.030;11.598;2023-05-29T13:45:10;4.65;;;3.55;;
16512;SDS011;8369;48.030;11.598;2023-05-29T13:47:37;8.55;;;3.83;;
16512;SDS011;8369;48.030;11.598;2023-05-29T13:50:03;5.13;;;3.90;;
16512;SDS011;8369;48.030;11.598;2023-05-29T13:52:30;10.85;;;4.10;;
16512;SDS011;8369;48.030;11.598;2023-05-29T13:54:56;5.68;;;4.20;;
16512;SDS011;8369;48.030;11.598;2023-05-29T13:57:24;5.60;;;3.95;;
16512;SDS011;8369;48.030;11.598;2023-05-29T13:59:50;5.13;;;3.88;;
16512;SDS011;8369;48.030;11.598;2023-05-29T14:02:16;7.10;;;4.10;;
16512;SDS011;8369;48.030;11.598;2023-05-29T14:04:42;6.25;;;3.75;;
16512;SDS011;8369;48.030;11.598;2023-05-29T14:07:08;6.97;;;3.53;;
16512;SDS011;8369;48.030;11.598;2023-05-29T14:09:34;5.82;;;3.85;;
16512;SDS011;8369;48.030;11.598;2023-05-29T14:12:00;4.60;;;3.47;;
16512;SDS011;8369;48.030;11.598;2023-05-29T14:14:27;7.07;;;3.63;;
16512;SDS011;8369;48.030;11.598;2023-05-29T14:16:53;6.30;;;3.53;;
16512;SDS011;8369;48.030;11.598;2023-05-29T14:19:23;5.07;;;3.55;;
16512;SDS011;8369;48.030;11.598;2023-05-29T14:21:49;4.93;;;3.42;;
16512;SDS011;8369;48.030;11.598;2023-05-29T14:24:17;5.55;;;3.80;;
16512;SDS011;8369;48.030;11.598;2023-05-29T14:26:43;6.60;;;4.47;;
16512;SDS011;8369;48.030;11.598;2023-05-29T14:29:12;4.97;;;3.72;;
16512;SDS011;8369;48.030;11.598;2023-05-29T14:31:39;5.78;;;3.53;;
16512;SDS011;8369;48.030;11.598;2023-05-29T14:34:06;3.97;;;3.10;;
16512;SDS011;8369;48.030;11.598;2023-05-29T14:36:31;4.18;;;3.60;;
16512;SDS011;8369;48.030;11.598;2023-05-29T14:38:57;4.47;;;3.20;;
16512;SDS011;8369;48.030;11.598;2023-05-29T14:41:24;4.43;;;3.38;;
16512;SDS011;8369;48.030;11.598;2023-05-29T14:43:50;4.70;;;3.80;;
16512;SDS011;8369;48.030;11.598;2023-05-29T14:46:17;6.50;;;3.60;;
16512;SDS011;8369;48.030;11.598;2023-05-29T14:48:43;5.30;;;3.67;;
16512;SDS011;8369;48.030;11.598;2023-05-29T14:51:09;4.85;;;3.50;;
16512;SDS011;8369;48.030;11.598;2023-05-29T14:53:36;4.88;;;3.45;;
16512;SDS011;8369;48.030;11.598;2023-05-29T14:56:02;5.20;;;3.42;;
16512;SDS011;8369;48.030;11.598;2023-05-29T14:58:27;4.90;;;3.67;;
16512;SDS011;8369;48.030;11.598;2023-05-29T15:00:53;5.85;;;3.67;;
16512;SDS011;8369;48.030;11.598;2023-05-29T15:03:19;5.60;;;3.60;;
16512;SDS011;8369;48.030;11.598;2023-05-29T15:05:46;5.43;;;3.80;;
16512;SDS011;8369;48.030;11.598;2023-05-29T15:08:11;5.53;;;3.65;;
16512;SDS011;8369;48.030;11.598;2023-05-29T15:10:38;5.65;;;4.53;;
16512;SDS011;8369;48.030;11.598;2023-05-29T15:13:03;6.15;;;3.45;;
16512;SDS011;8369;48.030;11.598;2023-05-29T15:15:32;4.63;;;3.25;;
16512;SDS011;8369;48.030;11.598;2023-05-29T15:17:58;5.18;;;3.50;;
16512;SDS011;8369;48.030;11.598;2023-05-29T15:20:25;4.57;;;3.50;;
16512;SDS011;8369;48.030;11.598;2023-05-29T15:22:51;5.47;;;3.58;;
16512;SDS011;8369;48.030;11.598;2023-05-29T15:25:18;5.53;;;3.20;;
16512;SDS011;8369;48.030;11.598;2023-05-29T15:27:45;6.53;;;3.50;;
16512;SDS011;8369;48.030;11.598;2023-05-29T15:32:38;4.13;;;3.22;;